Time;durP1;ratioP1;P1;durP2;ratioP2;P2;SDS_P1;SDS_P2;PMS_P1;PMS_P2;Temp;Humidity;BMP_temperature;BMP_pressure;BME280_temperature;BME280_humidity;BME280_pressure;Samples;Min_cycle;Max_cycle;Signal;HPM_P1;HPM_P2
2022/12/05 00:00:13;;;;;;;;;25.00;22.75;;;;;6.83;73.13;101004.16;5046570;28;45530;-83
2022/12/05 00:02:38;;;;;;;;;27.00;22.50;;;;;6.82;72.92;101005.00;5047479;28;45202;-86
2022/12/05 00:05:04;;;;;;;;;26.00;21.67;;;;;6.79;72.86;101003.09;5048008;28;44972;-81
2022/12/05 00:07:29;;;;;;;;;24.25;21.50;;;;;6.47;73.05;100946.53;5050751;28;45168;-83
2022/12/05 00:09:55;;;;;;;;;24.33;20.67;;;;;6.73;73.18;100998.44;5050274;28;54645;-84
2022/12/05 00:12:20;;;;;;;;;23.75;22.75;;;;;6.55;73.01;100970.44;5050484;28;45050;-84
2022/12/05 00:14:45;;;;;;;;;24.75;22.50;;;;;6.52;72.79;100971.19;5050484;28;45356;-84
2022/12/05 00:17:10;;;;;;;;;24.00;22.33;;;;;6.72;73.26;101014.94;5050338;28;55043;-83
2022/12/05 00:19:36;;;;;;;;;31.67;25.00;;;;;6.52;73.31;100971.19;5049799;28;45536;-84
2022/12/05 00:22:01;;;;;;;;;33.33;25.67;;;;;6.71;73.26;101009.63;5049881;28;45057;-83
2022/12/05 00:24:26;;;;;;;;;27.25;24.00;;;;;6.76;73.34;101012.50;5050480;28;45105;-81
2022/12/05 00:26:52;;;;;;;;;24.33;21.33;;;;;6.73;73.16;101005.38;5050945;28;44966;-80
2022/12/05 00:29:17;;;;;;;;;24.67;22.33;;;;;6.72;73.27;101007.09;5049051;28;60466;-80
2022/12/05 00:31:43;;;;;;;;;28.33;22.67;;;;;6.66;73.35;101001.56;5050106;28;60932;-80
2022/12/05 00:34:09;;;;;;;;;28.25;27.75;;;;;6.63;73.14;100995.25;5050405;28;45090;-81
2022/12/05 00:36:35;;;;;;;;;27.50;24.75;;;;;6.74;73.23;101015.00;5050629;28;45271;-80
2022/12/05 00:39:05;;;;;;;;;25.25;21.50;;;;;6.72;73.30;101014.94;5050243;28;45690;-80
2022/12/05 00:41:31;;;;;;;;;24.00;16.50;;;;;6.73;73.30;101015.84;5050305;28;45380;-80
2022/12/05 00:43:58;;;;;;;;;27.50;20.50;;;;;6.73;73.33;101010.59;5050076;28;44989;-80
2022/12/05 00:46:25;;;;;;;;;24.00;22.50;;;;;6.38;73.57;100953.88;5050002;28;45210;-80
2022/12/05 00:48:55;;;;;;;;;26.75;22.25;;;;;6.70;73.24;101010.47;5050391;28;45627;-81
2022/12/05 00:51:29;;;;;;;;;30.75;24.50;;;;;6.71;73.20;101014.88;5049516;28;45530;-81
2022/12/05 00:53:58;;;;;;;;;25.25;20.00;;;;;6.68;73.10;101015.56;5050220;28;45183;-81
2022/12/05 00:56:25;;;;;;;;;19.75;18.50;;;;;6.66;73.18;101019.84;5049969;28;45457;-82
2022/12/05 00:58:53;;;;;;;;;28.50;25.50;;;;;6.60;73.04;101018.56;5049275;28;45333;-79
2022/12/05 01:01:26;;;;;;;;;27.50;23.00;;;;;6.34;73.11;100985.81;5050109;28;45558;-80
2022/12/05 01:03:55;;;;;;;;;27.00;23.50;;;;;6.39;72.95;101010.47;5050553;28;44911;-85
2022/12/05 01:06:22;;;;;;;;;27.00;22.50;;;;;6.29;73.16;100992.50;5049597;28;45209;-85
2022/12/05 01:08:48;;;;;;;;;26.00;20.75;;;;;6.50;73.83;101032.84;5049775;28;46056;-84
2022/12/05 01:11:16;;;;;;;;;21.50;17.75;;;;;6.45;73.23;101034.31;5049694;28;45192;-85
2022/12/05 01:13:42;;;;;;;;;14.75;7.50;;;;;6.44;73.27;101028.19;5049632;28;45841;-85
2022/12/05 01:16:17;;;;;;;;;25.75;20.25;;;;;6.59;73.42;101053.34;5049327;28;45314;-84
2022/12/05 01:18:43;;;;;;;;;28.00;23.50;;;;;6.27;73.23;101001.97;5050141;28;45632;-84
2022/12/05 01:21:09;;;;;;;;;24.00;19.75;;;;;6.47;73.30;101023.16;5049253;28;45244;-85
2022/12/05 01:23:35;;;;;;;;;28.50;23.50;;;;;6.54;73.17;101042.66;5049826;28;45268;-85
2022/12/05 01:26:06;;;;;;;;;28.25;24.25;;;;;6.69;73.45;101060.88;5048925;28;45271;-84
2022/12/05 01:28:31;;;;;;;;;22.50;21.50;;;;;6.49;73.53;101030.16;5049234;28;45682;-85
2022/12/05 01:30:57;;;;;;;;;25.25;22.00;;;;;6.72;73.47;101074.13;5049871;28;45176;-84
2022/12/05 01:33:22;;;;;;;;;24.25;21.25;;;;;6.72;73.51;101082.84;5049661;28;45129;-84
2022/12/05 01:35:47;;;;;;;;;21.25;19.25;;;;;6.66;73.71;101068.56;5049400;28;45004;-84
2022/12/05 01:38:13;;;;;;;;;30.50;25.25;;;;;6.61;73.69;101065.69;5030703;28;46917;-83
2022/12/05 01:40:39;;;;;;;;;32.75;22.50;;;;;6.75;73.61;101084.75;5031036;28;45285;-85
2022/12/05 01:43:13;;;;;;;;;24.50;23.75;;;;;6.66;73.73;101076.41;5046800;28;45121;-85
2022/12/05 01:45:41;;;;;;;;;23.50;22.00;;;;;6.57;73.50;101057.59;5048912;28;45078;-84
2022/12/05 01:48:16;;;;;;;;;26.25;19.00;;;;;6.46;73.63;101043.97;5048867;28;45530;-84
2022/12/05 01:50:42;;;;;;;;;22.00;20.25;;;;;6.51;73.67;101058.16;5048949;28;45106;-85
2022/12/05 01:53:07;;;;;;;;;20.00;19.00;;;;;6.45;73.54;101056.13;5048479;28;44969;-85
2022/12/05 01:55:35;;;;;;;;;30.50;24.50;;;;;6.76;73.25;101112.66;5048491;28;45023;-85
2022/12/05 01:58:02;;;;;;;;;26.50;23.50;;;;;6.76;73.37;101112.66;5048822;28;46035;-83
2022/12/05 02:00:27;;;;;;;;;31.00;23.50;;;;;6.34;73.42;101036.31;5048762;28;45080;-85
2022/12/05 02:02:59;;;;;;;;;28.33;24.33;;;;;6.49;73.44;101064.09;5049061;28;45036;-85
2022/12/05 02:05:31;;;;;;;;;28.00;23.50;;;;;6.67;73.44;101099.97;5048667;28;45366;-83
2022/12/05 02:07:59;;;;;;;;;25.50;23.00;;;;;6.63;73.44;101090.16;5048757;28;46568;-84
2022/12/05 02:10:29;;;;;;;;;30.50;25.25;;;;;6.51;73.46;101063.38;5049096;28;45120;-83
2022/12/05 02:13:04;;;;;;;;;31.25;25.00;;;;;6.71;73.70;101103.66;5049115;28;45175;-84
2022/12/05 02:15:41;;;;;;;;;26.75;22.50;;;;;6.69;73.19;101103.56;5048415;28;45115;-84
2022/12/05 02:18:09;;;;;;;;;27.25;22.25;;;;;6.66;73.74;101105.13;5046753;28;46551;-83
2022/12/05 02:20:53;;;;;;;;;29.00;23.50;;;;;6.36;73.46;101055.59;5048648;28;45289;-84
2022/12/05 02:23:26;;;;;;;;;23.50;20.75;;;;;6.63;73.54;101107.56;5049011;28;45017;-85
2022/12/05 02:26:06;;;;;;;;;24.50;21.25;;;;;6.62;73.54;101103.16;5029261;28;45179;-85
2022/12/05 02:28:37;;;;;;;;;27.50;22.50;;;;;6.60;73.80;101105.69;5027573;28;45255;-84
2022/12/05 02:31:14;;;;;;;;;27.25;21.75;;;;;6.59;73.64;101102.97;5028674;28;45085;-83
2022/12/05 02:33:47;;;;;;;;;24.75;19.75;;;;;6.57;73.57;101105.50;5031541;28;45100;-84
2022/12/05 02:36:29;;;;;;;;;22.00;21.00;;;;;6.55;73.59;101107.16;5028647;28;45269;-84
2022/12/05 02:39:00;;;;;;;;;25.75;23.50;;;;;6.55;73.65;101109.75;5030953;28;45885;-80
2022/12/05 02:41:35;;;;;;;;;25.25;23.00;;;;;6.56;73.67;101108.03;5048458;28;45391;-80
2022/12/05 02:44:20;;;;;;;;;24.00;20.50;;;;;6.42;73.75;101086.38;5048385;28;45345;-80
2022/12/05 02:46:48;;;;;;;;;25.25;19.25;;;;;6.39;73.63;101084.47;5048854;28;45293;-80
2022/12/05 02:49:20;;;;;;;;;29.75;23.00;;;;;6.46;73.66;101101.41;5047995;28;45395;-81
2022/12/05 02:51:49;;;;;;;;;19.50;17.75;;;;;6.32;73.59;101071.00;5048679;28;45234;-80
2022/12/05 02:54:22;;;;;;;;;24.00;22.50;;;;;6.15;73.59;101051.75;5047697;28;45056;-80
2022/12/05 02:56:49;;;;;;;;;26.75;23.25;;;;;6.38;73.67;101098.34;5048692;28;45070;-80
2022/12/05 02:59:15;;;;;;;;;25.75;24.50;;;;;6.40;73.59;101090.59;5029363;28;46163;-81
2022/12/05 03:01:45;;;;;;;;;25.25;20.75;;;;;6.36;73.75;101096.47;5048564;28;45069;-80
2022/12/05 03:04:12;;;;;;;;;27.50;23.00;;;;;6.23;74.01;101081.81;5048062;28;45129;-80
2022/12/05 03:07:01;;;;;;;;;30.75;24.00;;;;;6.32;73.88;101102.31;5048370;28;45319;-80
2022/12/05 03:09:36;;;;;;;;;34.00;28.00;;;;;6.31;74.08;101100.53;5046855;28;45420;-81
2022/12/05 03:12:21;;;;;;;;;28.50;28.00;;;;;6.30;73.89;101106.53;5047793;28;45573;-80
2022/12/05 03:15:00;;;;;;;;;25.50;20.50;;;;;6.08;73.73;101079.22;5048095;28;45134;-81
2022/12/05 03:17:31;;;;;;;;;32.50;27.25;;;;;6.18;73.80;101102.41;5047934;28;45132;-78
2022/12/05 03:20:33;;;;;;;;;31.25;24.00;;;;;6.16;73.95;101100.53;5047305;28;45117;-80
2022/12/05 03:23:04;;;;;;;;;28.50;24.00;;;;;6.07;73.95;101085.25;5042229;28;45527;-82
2022/12/05 03:25:45;;;;;;;;;31.25;26.00;;;;;6.25;74.22;101121.03;5047588;28;45334;-80
2022/12/05 03:28:20;;;;;;;;;31.50;23.50;;;;;6.25;74.28;101126.25;5029603;28;45194;-85
2022/12/05 03:30:47;;;;;;;;;33.00;25.75;;;;;6.26;74.03;101121.16;5046064;28;45203;-86
2022/12/05 03:33:34;;;;;;;;;26.50;22.75;;;;;6.15;73.96;101097.00;5047762;28;45558;-85
2022/12/05 03:36:07;;;;;;;;;30.25;27.75;;;;;6.27;74.03;101116.81;5045501;28;45182;-85
2022/12/05 03:39:04;;;;;;;;;28.50;26.00;;;;;6.26;74.16;101126.38;5047985;28;45047;-85
2022/12/05 03:41:35;;;;;;;;;29.50;27.00;;;;;6.25;74.07;101129.75;5028663;28;45651;-85
2022/12/05 03:44:07;;;;;;;;;30.50;27.25;;;;;6.23;74.53;101126.19;5050940;28;45077;-84
2022/12/05 03:46:40;;;;;;;;;30.75;24.75;;;;;6.27;73.97;101135.09;5051065;28;45360;-86
2022/12/05 03:49:19;;;;;;;;;30.25;25.00;;;;;6.26;74.07;101135.91;5050357;28;45156;-84
2022/12/05 03:51:54;;;;;;;;;27.25;24.00;;;;;6.00;74.04;101096.13;5032756;28;46306;-85
2022/12/05 03:54:33;;;;;;;;;30.00;23.00;;;;;6.24;74.26;101135.78;5045005;28;45441;-86
2022/12/05 03:57:06;;;;;;;;;28.50;23.50;;;;;6.32;74.29;101144.09;5030755;28;45384;-84
2022/12/05 03:59:38;;;;;;;;;25.50;24.25;;;;;6.23;74.32;101133.09;5029282;28;45285;-84
2022/12/05 04:02:34;;;;;;;;;31.25;24.50;;;;;6.19;74.22;101132.03;5029914;28;45049;-85
2022/12/05 04:05:09;;;;;;;;;29.00;25.00;;;;;6.10;74.13;101124.53;5039717;28;45490;-85
2022/12/05 04:07:38;;;;;;;;;26.00;23.75;;;;;6.13;74.31;101131.66;5032174;28;45095;-85
2022/12/05 04:10:12;;;;;;;;;16.75;14.25;;;;;6.12;74.10;101129.88;5051158;28;45152;-85
2022/12/05 04:12:41;;;;;;;;;32.50;29.50;;;;;6.26;74.08;101154.19;5050444;28;46266;-84
2022/12/05 04:15:17;;;;;;;;;31.00;24.25;;;;;6.19;74.21;101142.47;5050259;28;45104;-82
2022/12/05 04:17:48;;;;;;;;;33.00;29.50;;;;;6.13;74.44;101137.78;5050283;28;45113;-83
2022/12/05 04:23:11;;;;;;;;;26.00;22.00;;;;;6.01;74.18;101137.09;5050314;28;45077;-84
2022/12/05 04:26:05;;;;;;;;;34.50;29.75;;;;;6.19;74.38;101163.34;5050962;28;45324;-85
2022/12/05 04:28:37;;;;;;;;;35.25;28.25;;;;;6.20;74.15;101168.63;5050695;28;45192;-85
2022/12/05 04:31:18;;;;;;;;;35.25;27.75;;;;;6.23;74.27;101172.25;5050302;28;45025;-82
2022/12/05 04:34:09;;;;;;;;;31.75;27.75;;;;;6.22;74.03;101171.38;5031964;28;47367;-83
2022/12/05 04:36:56;;;;;;;;;34.25;27.50;;;;;6.06;74.12;101143.47;5020326;28;45362;-85
2022/12/05 04:39:30;;;;;;;;;35.00;28.50;;;;;6.03;74.23;101145.00;5042291;28;45382;-84
2022/12/05 04:42:10;;;;;;;;;33.00;30.00;;;;;6.17;74.27;101160.66;5050076;28;45094;-84
2022/12/05 04:44:45;;;;;;;;;35.75;31.75;;;;;6.24;74.12;101168.81;5050664;28;45162;-85
2022/12/05 04:47:13;;;;;;;;;38.75;31.00;;;;;5.97;73.97;101127.28;5049597;28;45674;-83
2022/12/05 04:49:41;;;;;;;;;35.25;28.00;;;;;6.05;74.08;101144.25;5050363;28;45251;-82
2022/12/05 04:52:09;;;;;;;;;30.75;27.25;;;;;6.16;74.13;101164.06;5049220;28;45243;-82
2022/12/05 04:54:43;;;;;;;;;27.75;23.25;;;;;6.23;74.13;101180.97;5050107;28;45637;-83
2022/12/05 04:57:24;;;;;;;;;28.50;27.50;;;;;6.12;74.08;101161.19;5049278;28;45500;-81
2022/12/05 04:59:49;;;;;;;;;32.75;28.50;;;;;5.98;74.11;101141.22;5050173;28;45120;-82
2022/12/05 05:02:20;;;;;;;;;26.50;21.50;;;;;6.07;74.02;101168.75;5049689;28;45084;-80
2022/12/05 05:04:49;;;;;;;;;2.00;0.00;;;;;6.17;74.13;101178.91;5049955;28;45404;-81
2022/12/05 05:07:16;;;;;;;;;26.50;23.50;;;;;6.17;74.08;101183.25;5049443;28;45292;-80
2022/12/05 05:09:42;;;;;;;;;33.50;27.75;;;;;6.16;73.92;101192.78;5050121;28;45050;-80
2022/12/05 05:12:08;;;;;;;;;31.50;24.25;;;;;6.13;74.12;101189.09;5049359;28;45176;-80
2022/12/05 05:14:33;;;;;;;;;28.75;25.50;;;;;6.12;74.14;101198.63;5049806;28;45022;-79
2022/12/05 05:16:59;;;;;;;;;29.00;25.75;;;;;5.88;73.98;101155.38;5049312;28;45194;-80
2022/12/05 05:19:24;;;;;;;;;29.50;23.75;;;;;6.12;74.13;101196.00;5049340;28;45219;-80
2022/12/05 05:21:50;;;;;;;;;27.67;24.00;;;;;5.87;74.23;101146.66;5050254;28;45353;-81
2022/12/05 05:24:17;;;;;;;;;27.00;25.25;;;;;6.14;74.33;101191.78;5048992;28;45113;-80
2022/12/05 05:26:44;;;;;;;;;32.50;27.25;;;;;6.15;74.15;101197.88;5048525;28;45092;-79
2022/12/05 05:29:10;;;;;;;;;31.25;26.50;;;;;6.14;73.92;101197.00;5049161;28;45260;-81
2022/12/05 05:31:38;;;;;;;;;37.50;28.00;;;;;5.91;73.98;101164.34;5049517;28;45109;-80
2022/12/05 05:34:04;;;;;;;;;37.75;28.25;;;;;6.06;74.16;101195.66;5048971;28;45431;-81
2022/12/05 05:36:29;;;;;;;;;35.50;32.25;;;;;6.01;74.05;101185.72;5047565;28;45383;-83
2022/12/05 05:38:57;;;;;;;;;33.25;29.75;;;;;5.90;74.59;101174.63;5049416;28;45097;-83
2022/12/05 05:41:29;;;;;;;;;33.00;29.25;;;;;5.87;73.94;101158.81;5049364;28;45313;-80
2022/12/05 05:43:55;;;;;;;;;29.75;24.50;;;;;6.12;74.23;101202.94;5049478;28;45578;-81
2022/12/05 05:46:23;;;;;;;;;36.75;32.25;;;;;6.11;73.79;101204.66;5048668;28;45177;-81
2022/12/05 05:48:49;;;;;;;;;36.25;28.00;;;;;6.12;74.42;101213.38;5030510;28;45381;-81
2022/12/05 05:51:16;;;;;;;;;36.00;31.50;;;;;5.98;74.22;101182.94;5049309;28;45069;-81
2022/12/05 05:53:41;;;;;;;;;45.75;37.00;;;;;6.05;74.23;101209.47;5047745;28;46138;-83
2022/12/05 05:56:13;;;;;;;;;33.25;29.00;;;;;6.16;74.41;101225.81;5048728;28;50400;-85
2022/12/05 05:58:38;;;;;;;;;40.00;30.75;;;;;6.18;74.05;101232.00;5048622;28;45204;-85
2022/12/05 06:01:30;;;;;;;;;28.00;26.50;;;;;6.19;74.20;101232.09;5048853;28;45125;-85
2022/12/05 06:03:56;;;;;;;;;40.25;32.75;;;;;5.75;74.11;101156.34;5043155;28;45533;-83
2022/12/05 06:06:23;;;;;;;;;39.50;32.00;;;;;6.19;73.99;101233.81;5047176;28;45524;-83
2022/12/05 06:08:48;;;;;;;;;33.25;29.00;;;;;5.91;74.10;101184.25;5048831;28;45166;-83
2022/12/05 06:11:19;;;;;;;;;32.50;26.25;;;;;6.23;74.48;101234.91;5048094;28;45382;-85
2022/12/05 06:13:45;;;;;;;;;29.75;28.50;;;;;6.23;74.32;101233.19;5048293;28;45745;-82
2022/12/05 06:16:12;;;;;;;;;36.50;30.75;;;;;6.25;73.96;101247.22;5048176;28;45172;-84
2022/12/05 06:18:38;;;;;;;;;33.75;29.00;;;;;6.21;74.05;101240.03;5048080;28;45187;-84
2022/12/05 06:21:07;;;;;;;;;32.50;29.50;;;;;6.22;74.23;101247.06;5048462;28;45158;-84
2022/12/05 06:23:33;;;;;;;;;35.50;28.25;;;;;6.00;74.03;101216.13;5048599;28;45810;-83
2022/12/05 06:25:58;;;;;;;;;39.00;34.00;;;;;6.24;74.13;101254.97;5047925;28;45211;-84
2022/12/05 06:28:25;;;;;;;;;39.33;33.00;;;;;6.01;73.94;101210.13;5049078;28;45406;-84
2022/12/05 06:30:51;;;;;;;;;35.75;32.25;;;;;5.85;73.84;101186.47;5030285;28;45316;-81
2022/12/05 06:33:16;;;;;;;;;31.25;27.50;;;;;6.21;74.39;101258.31;5046579;28;45550;-84
2022/12/05 06:35:42;;;;;;;;;33.25;29.00;;;;;6.23;74.16;101254.06;5047818;28;45092;-82
2022/12/05 06:38:08;;;;;;;;;32.00;30.50;;;;;5.81;74.03;101185.41;5047657;28;44954;-82
2022/12/05 06:40:33;;;;;;;;;25.25;22.75;;;;;6.14;73.92;101245.69;5060958;28;45107;-83
2022/12/05 06:42:59;;;;;;;;;24.75;21.75;;;;;6.13;74.21;101247.38;5065525;28;45238;-81
2022/12/05 06:45:24;;;;;;;;;28.33;24.00;;;;;6.24;74.09;101260.19;5030165;28;45196;-84
2022/12/05 06:47:51;;;;;;;;;34.75;27.25;;;;;6.22;74.08;101267.94;5031307;28;45337;-80
2022/12/05 06:50:16;;;;;;;;;35.00;30.25;;;;;6.24;74.29;101268.00;5028376;28;45241;-80
2022/12/05 06:52:42;;;;;;;;;30.75;24.25;;;;;6.25;74.11;101272.41;5052761;28;45687;-79
2022/12/05 06:55:08;;;;;;;;;30.00;28.50;;;;;6.24;74.04;101275.84;5029723;28;45302;-80
2022/12/05 06:57:33;;;;;;;;;27.00;25.25;;;;;6.03;74.28;101249.34;5014406;28;45371;-83
2022/12/05 07:02:42;;;;;;;;;29.75;25.50;;;;;6.23;73.93;101293.22;5048041;28;45206;-82
2022/12/05 07:05:08;;;;;;;;;33.25;29.25;;;;;6.12;74.10;101274.31;5047876;28;45341;-83
2022/12/05 07:07:34;;;;;;;;;27.25;24.00;;;;;6.23;73.94;101289.72;5047552;28;45062;-83
2022/12/05 07:09:59;;;;;;;;;29.25;25.00;;;;;5.93;74.00;101247.91;5044324;28;45430;-84
2022/12/05 07:12:25;;;;;;;;;31.00;24.00;;;;;5.94;73.64;101257.50;5041866;28;46034;-83
2022/12/05 07:14:50;;;;;;;;;25.50;21.75;;;;;6.15;73.89;101299.66;5044928;28;45219;-80
2022/12/05 07:17:20;;;;;;;;;37.00;28.50;;;;;6.23;73.78;101310.59;5046612;28;45401;-81
2022/12/05 07:19:49;;;;;;;;;39.50;25.25;;;;;6.23;73.71;101303.66;5047899;28;44990;-80
2022/12/05 07:22:16;;;;;;;;;27.00;26.00;;;;;6.23;73.86;101298.44;5047146;28;46017;-79
2022/12/05 07:24:42;;;;;;;;;28.75;23.50;;;;;6.11;73.63;101289.88;5025400;28;45395;-79
2022/12/05 07:27:08;;;;;;;;;20.50;18.75;;;;;6.09;73.62;101281.94;5027831;28;45135;-80
2022/12/05 07:29:33;;;;;;;;;29.33;28.00;;;;;6.24;73.73;101307.16;5048287;28;45034;-80
2022/12/05 07:31:58;;;;;;;;;30.67;24.67;;;;;6.12;73.74;101291.66;5046519;28;45572;-79
2022/12/05 07:34:24;;;;;;;;;29.00;26.33;;;;;6.19;73.75;101305.16;5047276;28;45188;-79
2022/12/05 07:36:49;;;;;;;;;33.25;28.50;;;;;6.26;73.84;101318.63;5048108;28;45137;-78
2022/12/05 07:39:15;;;;;;;;;31.75;24.75;;;;;6.17;73.88;101305.91;5047023;28;45574;-80
2022/12/05 07:41:41;;;;;;;;;30.75;25.75;;;;;6.26;73.63;101335.19;5029607;28;47654;-80
2022/12/05 07:44:08;;;;;;;;;35.00;27.25;;;;;6.25;73.56;101333.34;5047325;28;45023;-79
2022/12/05 07:46:33;;;;;;;;;34.25;29.50;;;;;5.74;73.75;101253.66;5044220;28;45362;-83
2022/12/05 07:48:58;;;;;;;;;35.00;25.33;;;;;5.91;73.54;101285.97;5047685;28;44974;-87
2022/12/05 07:51:24;;;;;;;;;28.00;22.33;;;;;5.54;73.80;101215.91;5046885;28;53679;-83
2022/12/05 07:53:51;;;;;;;;;29.25;23.50;;;;;6.20;73.86;101340.88;5046838;28;45065;-80
2022/12/05 07:56:17;;;;;;;;;29.25;25.75;;;;;6.02;73.56;101312.78;5046837;28;45101;-82
2022/12/05 07:58:44;;;;;;;;;31.50;24.50;;;;;6.04;73.68;101313.78;5047527;28;45233;-81
2022/12/05 08:01:12;;;;;;;;;27.25;23.75;;;;;6.24;73.65;101343.69;5046498;28;45294;-81
2022/12/05 08:03:38;;;;;;;;;31.25;27.25;;;;;6.03;73.57;101314.59;5046626;28;46439;-79
2022/12/05 08:06:37;;;;;;;;;29.50;27.00;;;;;6.23;73.47;101353.25;5046355;28;45129;-81
2022/12/05 08:09:03;;;;;;;;;33.50;29.25;;;;;6.24;73.50;101357.66;5023583;28;45304;-82
2022/12/05 08:11:30;;;;;;;;;31.50;29.75;;;;;6.23;73.35;101344.53;5028612;28;45705;-81
2022/12/05 08:13:57;;;;;;;;;30.00;27.50;;;;;6.25;73.71;101350.72;5046916;28;45143;-84
2022/12/05 08:16:25;;;;;;;;;38.25;32.00;;;;;6.22;73.66;101338.41;5046354;28;45277;-90
2022/12/05 08:18:59;;;;;;;;;34.25;25.75;;;;;6.28;73.45;101354.44;5046532;28;45222;-85
2022/12/05 08:21:24;;;;;;;;;39.50;34.50;;;;;6.32;73.46;101364.25;5046511;28;46336;-83
2022/12/05 08:23:50;;;;;;;;;29.50;25.50;;;;;6.32;73.37;101360.75;5047090;28;45270;-88
2022/12/05 08:26:19;;;;;;;;;28.25;24.00;;;;;5.64;73.49;101248.66;5047838;28;45350;-86
2022/12/05 08:28:45;;;;;;;;;33.00;29.25;;;;;6.38;73.72;101375.06;5051445;28;45344;-83
2022/12/05 08:31:13;;;;;;;;;35.50;28.75;;;;;6.38;73.30;101374.16;5050837;28;45562;-85
2022/12/05 08:33:39;;;;;;;;;31.25;27.75;;;;;6.22;73.70;101348.84;5050936;28;45278;-84
2022/12/05 08:36:11;;;;;;;;;31.00;27.00;;;;;6.28;73.74;101358.75;5048752;28;45200;-84
2022/12/05 08:38:37;;;;;;;;;40.25;35.75;;;;;6.37;73.49;101364.53;5050344;28;45586;-88
2022/12/05 08:41:04;;;;;;;;;29.75;25.75;;;;;6.45;73.71;101374.66;5050671;28;45407;-84
2022/12/05 08:43:30;;;;;;;;;30.75;27.75;;;;;6.26;73.47;101335.19;5050162;28;45174;-84
2022/12/05 08:45:56;;;;;;;;;32.75;27.25;;;;;6.40;73.28;101360.41;5049139;28;45301;-89
2022/12/05 08:48:22;;;;;;;;;27.00;23.25;;;;;6.41;73.25;101359.59;5050259;28;45036;-82
2022/12/05 08:50:47;;;;;;;;;36.50;31.25;;;;;6.47;73.22;101367.81;5049804;28;45152;-85
2022/12/05 08:53:13;;;;;;;;;30.75;27.50;;;;;6.26;73.37;101334.28;5049497;28;45343;-86
2022/12/05 08:55:38;;;;;;;;;27.25;24.00;;;;;6.46;73.63;101378.16;5050221;28;45200;-86
2022/12/05 08:58:04;;;;;;;;;34.67;28.00;;;;;6.38;73.66;101362.00;5049341;28;55226;-83
2022/12/05 09:00:30;;;;;;;;;30.25;26.75;;;;;6.21;73.44;101334.00;5049031;28;45629;-84
2022/12/05 09:02:56;;;;;;;;;25.75;24.50;;;;;6.33;73.05;101354.72;5049042;28;45459;-84
2022/12/05 09:05:21;;;;;;;;;29.00;26.75;;;;;6.28;73.30;101353.53;5046956;28;45186;-82
2022/12/05 09:07:47;;;;;;;;;24.75;23.00;;;;;6.47;73.68;101386.09;5050193;28;45252;-82
2022/12/05 09:10:12;;;;;;;;;31.67;24.67;;;;;6.45;73.30;101382.50;5055794;28;45497;-84
2022/12/05 09:12:38;;;;;;;;;30.00;27.25;;;;;6.49;73.28;101395.72;5051879;28;45163;-81
2022/12/05 09:15:06;;;;;;;;;25.25;21.00;;;;;6.27;73.05;101360.47;5028746;28;44956;-80
2022/12/05 09:17:31;;;;;;;;;27.25;21.00;;;;;6.50;73.27;101401.00;5029830;28;45310;-82
2022/12/05 09:19:57;;;;;;;;;27.75;23.25;;;;;6.47;73.39;101395.63;5047579;28;57861;-83
2022/12/05 09:22:22;;;;;;;;;28.00;23.00;;;;;6.53;73.26;101398.59;5030135;28;50409;-83
2022/12/05 09:24:48;;;;;;;;;29.33;27.67;;;;;6.56;73.01;101396.19;5039342;28;46663;-79
2022/12/05 09:27:13;;;;;;;;;34.75;21.75;;;;;6.58;72.99;101397.19;5033160;28;45630;-79
2022/12/05 09:29:39;;;;;;;;;31.00;27.50;;;;;6.58;72.99;101407.63;5026800;28;47419;-80
2022/12/05 09:32:04;;;;;;;;;31.00;28.25;;;;;6.59;73.09;101405.91;5046625;28;45161;-79
2022/12/05 09:34:30;;;;;;;;;29.75;25.50;;;;;6.27;72.85;101346.50;5049030;28;45120;-80
2022/12/05 09:36:56;;;;;;;;;36.50;28.75;;;;;6.63;72.88;101413.13;5047581;28;45364;-80
2022/12/05 09:39:22;;;;;;;;;43.25;31.75;;;;;6.61;73.05;101407.81;5045571;28;45896;-79
2022/12/05 09:42:17;;;;;;;;;32.00;24.75;;;;;6.65;73.07;101416.72;5045125;28;45434;-79
2022/12/05 09:44:51;;;;;;;;;24.25;20.00;;;;;6.67;72.81;101423.84;5043486;28;45284;-80
2022/12/05 09:47:34;;;;;;;;;31.25;27.75;;;;;6.67;72.80;101417.72;5038963;28;45384;-81
2022/12/05 09:50:12;;;;;;;;;34.75;26.50;;;;;6.68;72.83;101423.03;5048399;28;45349;-84
2022/12/05 09:52:42;;;;;;;;;33.00;26.75;;;;;6.69;72.86;101423.94;5047129;28;45604;-80
2022/12/05 09:55:14;;;;;;;;;32.50;28.25;;;;;6.51;72.82;101400.22;5047332;28;45411;-79
2022/12/05 09:57:48;;;;;;;;;31.75;27.25;;;;;6.67;72.60;101426.47;5046835;28;44949;-79
2022/12/05 10:00:15;;;;;;;;;32.50;28.75;;;;;6.64;72.78;101426.28;5048535;28;46430;-80
2022/12/05 10:02:52;;;;;;;;;33.00;28.00;;;;;6.67;72.64;101425.56;5043411;28;45357;-79
2022/12/05 10:05:40;;;;;;;;;33.00;21.00;;;;;6.57;72.72;101415.38;5041578;28;45443;-80
2022/12/05 10:08:20;;;;;;;;;29.50;25.25;;;;;6.52;72.58;101415.09;5047607;28;45227;-79
2022/12/05 10:10:55;;;;;;;;;31.25;28.75;;;;;6.41;72.70;101390.94;5049138;28;45361;-85
2022/12/05 10:13:33;;;;;;;;;33.75;28.75;;;;;6.68;73.00;101438.72;5040646;28;45104;-83
2022/12/05 10:16:06;;;;;;;;;34.25;24.25;;;;;6.72;72.72;101438.09;5048210;28;45057;-83
2022/12/05 10:18:43;;;;;;;;;35.75;32.50;;;;;6.78;72.74;101436.66;5048717;28;45137;-81
2022/12/05 10:21:31;;;;;;;;;26.25;22.25;;;;;6.82;72.99;101442.19;5048011;28;45109;-82
2022/12/05 10:24:00;;;;;;;;;32.25;26.50;;;;;6.88;72.77;101436.41;5037357;28;45104;-81
2022/12/05 10:26:33;;;;;;;;;28.50;25.50;;;;;6.82;72.67;101430.81;5048809;28;45112;-80
2022/12/05 10:29:16;;;;;;;;;37.25;26.75;;;;;6.92;72.78;101444.53;5048160;28;45251;-80
2022/12/05 10:31:46;;;;;;;;;29.25;25.00;;;;;6.84;72.62;101429.19;5048221;28;45603;-82
2022/12/05 10:34:32;;;;;;;;;29.00;26.50;;;;;6.87;72.35;101438.13;5047578;28;45066;-83
2022/12/05 10:37:06;;;;;;;;;27.75;23.50;;;;;6.65;72.41;101406.28;5037456;28;45708;-80
2022/12/05 10:39:32;;;;;;;;;28.75;26.00;;;;;6.83;72.50;101441.34;5013099;28;45643;-80
2022/12/05 10:41:58;;;;;;;;;29.50;24.50;;;;;6.86;72.50;101445.88;4994738;28;46257;-84
2022/12/05 10:44:23;;;;;;;;;28.75;26.25;;;;;6.82;72.56;101430.81;5008426;28;45547;-83
2022/12/05 10:46:49;;;;;;;;;29.50;24.75;;;;;6.88;72.38;101447.75;5009835;28;45452;-81
2022/12/05 10:49:14;;;;;;;;;25.25;22.25;;;;;6.91;72.60;101447.97;5009286;28;45372;-84
2022/12/05 10:51:40;;;;;;;;;31.33;23.33;;;;;6.92;72.48;101443.63;5009388;28;45782;-83
2022/12/05 10:54:16;;;;;;;;;35.50;27.25;;;;;6.58;72.28;101386.72;5009292;28;45585;-82
2022/12/05 10:56:44;;;;;;;;;38.50;29.00;;;;;6.88;72.21;101447.75;5010069;28;45456;-83
2022/12/05 10:59:16;;;;;;;;;35.25;32.00;;;;;6.87;72.08;101445.06;5009306;28;45584;-83
2022/12/05 11:01:51;;;;;;;;;33.75;29.75;;;;;6.78;72.26;101431.44;5009723;28;45656;-83
2022/12/05 11:04:22;;;;;;;;;27.50;24.25;;;;;6.83;72.36;101438.75;5009588;28;45928;-83
2022/12/05 11:06:55;;;;;;;;;32.75;29.00;;;;;6.86;72.40;101448.50;5009498;28;45624;-83
2022/12/05 11:09:24;;;;;;;;;37.75;27.75;;;;;6.67;72.26;101420.34;5009701;28;45500;-83
2022/12/05 11:12:19;;;;;;;;;39.25;35.25;;;;;6.75;72.23;101434.78;5009466;28;45475;-84
2022/12/05 11:15:11;;;;;;;;;33.25;28.75;;;;;6.55;72.65;101407.47;5008364;28;45871;-83
2022/12/05 11:17:39;;;;;;;;;29.50;24.25;;;;;6.63;72.28;101428.78;5003072;28;45566;-84
2022/12/05 11:20:19;;;;;;;;;37.50;30.25;;;;;6.78;72.37;101454.94;5009332;28;45551;-83
2022/12/05 11:22:49;;;;;;;;;23.75;20.75;;;;;6.74;72.88;101448.63;4991714;28;47151;-82
2022/12/05 11:25:35;;;;;;;;;35.50;28.50;;;;;6.82;72.27;101460.47;5009214;28;45520;-81
2022/12/05 11:28:20;;;;;;;;;34.75;27.25;;;;;6.81;72.38;101447.31;5009412;28;45713;-82
2022/12/05 11:31:19;;;;;;;;;36.00;28.75;;;;;6.86;72.39;101445.88;5009071;28;45621;-80
2022/12/05 11:34:01;;;;;;;;;31.00;26.50;;;;;6.74;72.30;101427.72;5009508;28;45492;-82
2022/12/05 11:36:39;;;;;;;;;32.00;28.75;;;;;6.86;72.30;101453.72;5043640;28;45546;-83